createdAt,value
2022-11-04T04:55:44.735Z,25.98
2022-11-04T04:58:47.135Z,25.48
2022-11-04T05:01:49.564Z,26.50
2022-11-04T05:04:51.983Z,26.90
2022-11-04T05:07:54.027Z,27.58
2022-11-04T05:10:56.339Z,27.62
2022-11-04T05:13:58.543Z,26.77
2022-11-04T05:17:00.839Z,26.70
2022-11-04T05:20:03.053Z,26.45
2022-11-04T05:23:05.330Z,26.30
2022-11-04T05:26:07.538Z,25.23
2022-11-04T05:29:10.485Z,26.73
2022-11-04T05:32:12.596Z,26.87
2022-11-04T05:35:14.955Z,25.65
2022-11-04T05:38:17.013Z,26.33
2022-11-04T05:41:25.665Z,27.52
2022-11-04T05:44:27.958Z,27.77
2022-11-04T05:47:30.241Z,27.58
2022-11-04T05:50:33.331Z,28.45
2022-11-04T05:53:35.620Z,29.52
2022-11-04T05:56:37.799Z,30.45
2022-11-04T05:59:40.163Z,31.45
2022-11-04T06:02:42.290Z,31.50
2022-11-04T06:05:44.647Z,31.73
2022-11-04T06:08:46.693Z,31.90
2022-11-04T06:11:49.176Z,34.28
2022-11-04T06:14:51.279Z,32.92
2022-11-04T06:17:53.563Z,34.63
2022-11-04T06:21:13.800Z,32.08
2022-11-04T06:24:16.087Z,32.53
2022-11-04T06:27:18.186Z,30.62
2022-11-04T06:30:21.277Z,30.50
2022-11-04T06:33:23.484Z,31.73
2022-11-04T06:36:25.828Z,31.48
2022-11-04T06:39:27.938Z,31.52
2022-11-04T06:42:30.291Z,30.65
2022-11-04T06:45:32.307Z,32.00
2022-11-04T06:48:34.739Z,31.67
2022-11-04T06:51:36.789Z,30.08
2022-11-04T06:54:39.636Z,32.65
2022-11-04T06:57:41.770Z,31.15
2022-11-04T07:00:44.331Z,32.80
2022-11-04T07:03:55.348Z,32.60
2022-11-04T07:06:57.659Z,29.70
2022-11-04T07:09:59.683Z,28.85
2022-11-04T07:13:02.006Z,28.62
2022-11-04T07:16:06.165Z,28.55
2022-11-04T07:19:08.530Z,27.83
2022-11-04T07:22:10.667Z,30.10
2022-11-04T07:25:12.988Z,28.17
2022-11-04T07:28:15.228Z,27.87
2022-11-04T07:31:18.115Z,30.02
2022-11-04T07:34:20.165Z,28.73
2022-11-04T07:37:22.502Z,31.67
2022-11-04T07:40:24.523Z,29.90
2022-11-04T07:43:27.603Z,27.08
2022-11-04T07:46:29.658Z,29.63
2022-11-04T07:49:32.033Z,28.20
2022-11-04T07:52:34.163Z,30.48
2022-11-04T07:55:43.326Z,30.90
2022-11-04T07:58:45.801Z,28.87
2022-11-04T08:01:48.198Z,28.42
2022-11-04T08:16:52.876Z,29.02
2022-11-04T08:19:55.502Z,31.40
2022-11-04T08:22:57.531Z,31.33
2022-11-04T08:26:00.529Z,31.05
2022-11-04T08:29:07.877Z,30.30
2022-11-04T08:32:10.180Z,29.33
2022-11-04T08:35:12.285Z,29.48
2022-11-04T08:38:14.604Z,28.58
2022-11-04T08:41:19.854Z,31.77
2022-11-04T08:44:22.351Z,30.33
2022-11-04T08:47:24.388Z,28.77
2022-11-04T08:50:27.855Z,28.33
2022-11-04T08:53:30.041Z,29.33
2022-11-04T08:56:35.975Z,29.95
2022-11-04T08:59:38.035Z,31.40
2022-11-04T09:02:40.329Z,29.42
2022-11-04T09:05:47.291Z,31.27
2022-11-04T09:08:50.960Z,30.55
2022-11-04T09:11:53.879Z,30.52
2022-11-04T09:14:56.210Z,31.42
2022-11-04T09:17:58.231Z,30.88
2022-11-04T09:21:02.285Z,31.62
2022-11-04T09:24:05.012Z,29.37
2022-11-04T09:27:07.449Z,30.85
2022-11-04T09:30:10.256Z,31.12
2022-11-04T09:33:12.608Z,31.00
2022-11-04T09:36:14.652Z,28.20
2022-11-04T09:39:17.564Z,29.35
2022-11-04T09:42:46.916Z,30.95
2022-11-04T09:45:49.788Z,29.45
2022-11-04T09:48:55.181Z,31.05
2022-11-04T09:51:59.390Z,31.10
2022-11-04T09:55:11.331Z,31.20
2022-11-04T09:58:14.749Z,32.97
2022-11-04T10:01:28.219Z,32.08
2022-11-04T10:04:58.912Z,31.87
2022-11-04T10:08:03.829Z,32.42
2022-11-04T10:11:26.142Z,33.60
2022-11-04T10:14:53.042Z,34.30
2022-11-04T10:17:58.239Z,33.08
2022-11-04T10:21:21.442Z,33.85
2022-11-04T10:24:41.324Z,33.03
2022-11-04T10:27:46.802Z,35.75
2022-11-04T10:30:51.820Z,33.78
2022-11-04T10:34:04.121Z,34.22
2022-11-04T10:37:11.394Z,35.25
2022-11-04T10:40:27.028Z,34.00
2022-11-04T10:43:41.405Z,33.42
2022-11-04T10:47:27.883Z,34.55
2022-11-04T10:50:46.266Z,35.60
2022-11-04T10:53:55.281Z,35.88
2022-11-04T10:56:58.333Z,33.38
2022-11-04T11:00:05.221Z,34.30
2022-11-04T11:03:28.949Z,34.92
2022-11-04T11:06:33.419Z,35.22
2022-11-04T11:10:01.493Z,35.20
2022-11-04T11:13:07.478Z,36.40
2022-11-04T11:16:17.156Z,35.72
2022-11-04T11:19:22.046Z,36.78
2022-11-04T11:22:33.841Z,36.00
2022-11-04T11:25:42.284Z,36.15
2022-11-04T11:28:59.177Z,37.75
2022-11-04T11:32:01.594Z,35.75
2022-11-04T11:35:10.725Z,35.95
2022-11-04T11:38:28.681Z,36.13
2022-11-04T11:41:33.520Z,34.95
2022-11-04T11:44:47.828Z,36.38
2022-11-04T11:47:54.851Z,36.75
2022-11-04T11:50:58.770Z,36.80
2022-11-04T11:54:17.711Z,37.25
2022-11-04T11:57:35.926Z,37.75
2022-11-04T12:01:10.091Z,36.90
2022-11-04T12:11:33.083Z,38.15
2022-11-04T12:18:00.417Z,37.58
2022-11-04T12:21:21.586Z,38.97
2022-11-04T12:24:42.482Z,37.53
2022-11-04T12:27:58.952Z,38.15
2022-11-04T12:31:16.289Z,38.25
2022-11-04T12:34:49.095Z,39.60
2022-11-04T12:38:27.975Z,38.42
2022-11-04T12:41:58.762Z,40.50
2022-11-04T12:45:18.555Z,39.20
2022-11-04T12:48:56.883Z,38.65
2022-11-04T12:52:37.335Z,40.17
2022-11-04T12:55:52.091Z,39.20
2022-11-04T12:59:19.406Z,40.55
2022-11-04T13:02:31.581Z,39.53
2022-11-04T13:05:51.661Z,39.88
2022-11-04T13:09:02.583Z,39.28
2022-11-04T13:12:31.622Z,40.78
2022-11-04T13:15:43.197Z,37.53
2022-11-04T13:18:47.841Z,40.35
2022-11-04T13:21:50.436Z,39.03
2022-11-04T13:24:59.241Z,38.40
2022-11-04T13:28:02.991Z,38.42
2022-11-04T13:31:34.048Z,37.35
2022-11-04T13:34:55.263Z,37.05
2022-11-04T13:38:00.167Z,36.33
2022-11-04T13:41:21.764Z,38.70
2022-11-04T13:44:31.835Z,37.20
2022-11-04T13:47:48.472Z,36.45
2022-11-04T13:51:00.831Z,36.03
2022-11-04T13:54:03.825Z,35.35
2022-11-04T13:57:16.616Z,34.45
2022-11-04T14:00:24.336Z,35.55
2022-11-04T14:03:26.544Z,36.50
2022-11-04T14:07:03.716Z,36.13
2022-11-04T14:10:45.762Z,36.05
2022-11-04T14:14:04.761Z,35.50
2022-11-04T14:17:35.226Z,36.60
2022-11-04T14:20:37.259Z,39.20
2022-11-04T14:23:42.097Z,37.60
2022-11-04T14:26:46.576Z,37.05
2022-11-04T14:29:52.183Z,35.83
2022-11-04T14:32:59.458Z,35.22
2022-11-04T14:36:22.010Z,36.13
2022-11-04T14:39:28.582Z,36.20
2022-11-04T14:42:48.732Z,35.80
2022-11-04T14:45:51.069Z,36.58
2022-11-04T14:48:57.046Z,33.03
2022-11-04T14:51:59.256Z,30.08
2022-11-04T14:55:10.938Z,30.08
2022-11-04T14:58:25.174Z,28.85
2022-11-04T15:01:34.638Z,28.77
2022-11-04T15:04:37.454Z,29.35
2022-11-04T15:07:40.540Z,29.33
2022-11-04T15:10:42.583Z,29.83
2022-11-04T15:13:51.661Z,30.75
2022-11-04T15:16:57.119Z,29.95
2022-11-04T15:20:02.093Z,33.95
2022-11-04T15:23:08.207Z,33.22
2022-11-04T15:26:30.129Z,32.90
2022-11-04T15:29:33.357Z,32.95
2022-11-04T15:32:35.742Z,32.75
2022-11-04T15:35:43.337Z,34.35
2022-11-04T15:38:50.311Z,34.72
2022-11-04T15:42:16.165Z,34.60
2022-11-04T15:45:39.122Z,32.95
2022-11-04T15:48:41.254Z,34.40
2022-11-04T15:51:43.616Z,32.70
2022-11-04T15:54:48.481Z,34.15
2022-11-04T15:57:51.720Z,33.83
2022-11-04T16:00:55.774Z,31.83
2022-11-04T16:04:00.965Z,34.10
2022-11-04T16:07:23.318Z,34.90
2022-11-04T16:10:25.756Z,33.13
2022-11-04T16:13:27.827Z,32.80
2022-11-04T16:16:30.189Z,32.53
2022-11-04T16:19:32.296Z,33.75
2022-11-04T16:22:38.829Z,32.45
2022-11-04T16:25:40.916Z,32.03
2022-11-04T16:28:43.468Z,32.67
2022-11-04T16:31:45.748Z,30.98
2022-11-04T16:34:52.776Z,30.52
2022-11-04T16:37:56.152Z,31.15
